createdAt,value
2018-02-11T00:01:04.957Z,56.57
2018-02-11T00:03:32.919Z,53.60
2018-02-11T00:06:00.335Z,54.40
2018-02-11T00:08:27.794Z,53.47
2018-02-11T00:10:55.565Z,55.87
2018-02-11T00:13:23.024Z,56.13
2018-02-11T00:15:50.475Z,71.43
2018-02-11T00:18:18.240Z,109.43
2018-02-11T00:20:45.688Z,53.37
2018-02-11T00:23:13.152Z,57.23
2018-02-11T00:25:40.944Z,56.80
2018-02-11T00:28:08.392Z,51.43
2018-02-11T00:30:35.837Z,53.57
2018-02-11T00:33:03.636Z,54.00
2018-02-11T00:35:31.083Z,55.70
2018-02-11T00:38:04.688Z,54.80
2018-02-11T00:40:32.153Z,52.77
2018-02-11T00:42:59.600Z,55.10
2018-02-11T00:45:27.272Z,50.07
2018-02-11T00:47:54.720Z,57.53
2018-02-11T00:50:22.884Z,54.43
2018-02-11T00:52:50.694Z,55.10
2018-02-11T00:55:18.144Z,54.03
2018-02-11T00:57:45.601Z,98.67
2018-02-11T01:00:13.556Z,52.73
2018-02-11T01:02:41.008Z,52.97
2018-02-11T01:05:08.459Z,55.47
2018-02-11T01:07:36.056Z,50.10
2018-02-11T01:10:03.512Z,51.83
2018-02-11T01:12:30.956Z,49.57
2018-02-11T01:14:59.052Z,48.40
2018-02-11T01:17:26.504Z,51.57
2018-02-11T01:19:53.958Z,48.27
2018-02-11T01:22:21.738Z,46.10
2018-02-11T01:24:49.186Z,48.47
2018-02-11T01:27:16.634Z,49.20
2018-02-11T01:29:44.480Z,49.37
2018-02-11T01:32:11.933Z,49.93
2018-02-11T01:34:39.387Z,49.37
2018-02-11T01:37:07.115Z,48.83
2018-02-11T01:39:34.576Z,51.27
2018-02-11T01:42:02.028Z,49.80
2018-02-11T01:44:29.797Z,48.07
2018-02-11T01:46:57.250Z,47.13
2018-02-11T01:49:24.695Z,47.83
2018-02-11T01:51:52.534Z,47.77
2018-02-11T01:54:20.009Z,48.10
2018-02-11T01:56:47.477Z,50.70
2018-02-11T01:59:15.433Z,46.40
2018-02-11T02:01:42.884Z,49.27
2018-02-11T02:04:10.329Z,47.70
2018-02-11T02:06:38.173Z,45.30
2018-02-11T02:09:05.631Z,49.17
2018-02-11T02:11:33.093Z,50.87
2018-02-11T02:14:01.153Z,48.03
2018-02-11T02:16:28.612Z,46.30
2018-02-11T02:18:56.064Z,48.00
2018-02-11T02:21:24.152Z,45.50
2018-02-11T02:23:51.601Z,49.10
2018-02-11T02:26:19.048Z,47.57
2018-02-11T02:28:46.845Z,49.37
2018-02-11T02:31:14.302Z,49.83
2018-02-11T02:33:41.748Z,52.07
2018-02-11T02:36:09.520Z,49.27
2018-02-11T02:38:36.967Z,49.27
2018-02-11T02:41:04.419Z,51.17
2018-02-11T02:43:32.217Z,50.87
2018-02-11T02:45:59.661Z,47.63
2018-02-11T02:48:27.118Z,50.97
2018-02-11T02:50:54.901Z,47.17
2018-02-11T02:53:23.053Z,50.83
2018-02-11T02:55:50.505Z,48.87
2018-02-11T02:58:18.329Z,45.80
2018-02-11T03:00:45.787Z,49.03
2018-02-11T03:03:13.250Z,49.53
2018-02-11T03:05:41.218Z,50.23
2018-02-11T03:08:08.669Z,50.40
2018-02-11T03:10:36.123Z,49.50
2018-02-11T03:13:04.192Z,51.53
2018-02-11T03:15:31.657Z,48.33
2018-02-11T03:17:59.112Z,50.00
2018-02-11T03:20:26.885Z,49.70
2018-02-11T03:22:54.345Z,51.70
2018-02-11T03:25:21.796Z,51.37
2018-02-11T03:27:49.564Z,52.73
2018-02-11T03:30:17.018Z,50.30
2018-02-11T03:32:44.473Z,51.57
2018-02-11T03:35:12.250Z,54.80
2018-02-11T03:37:39.694Z,50.17
2018-02-11T03:40:07.151Z,51.40
2018-02-11T03:42:34.924Z,54.20
2018-02-11T03:45:02.378Z,49.80
2018-02-11T03:47:29.837Z,53.07
2018-02-11T03:49:57.621Z,54.73
2018-02-11T03:52:25.066Z,52.80
2018-02-11T03:54:52.932Z,55.07
2018-02-11T03:57:20.668Z,56.47
2018-02-11T03:59:48.146Z,56.30
2018-02-11T04:02:15.591Z,52.93
2018-02-11T04:04:43.325Z,53.20
2018-02-11T04:07:10.779Z,51.57
2018-02-11T04:09:38.244Z,52.37
2018-02-11T04:12:05.993Z,49.70
2018-02-11T04:14:33.443Z,53.50
2018-02-11T04:17:00.892Z,51.20
2018-02-11T04:19:28.699Z,49.30
2018-02-11T04:21:56.157Z,48.77
2018-02-11T04:24:23.609Z,51.30
2018-02-11T04:26:51.365Z,48.07
2018-02-11T04:29:18.807Z,49.23
2018-02-11T04:31:46.282Z,50.70
2018-02-11T04:34:14.106Z,50.73
2018-02-11T04:36:41.554Z,47.40
2018-02-11T04:39:08.999Z,47.40
2018-02-11T04:41:37.050Z,47.77
2018-02-11T04:44:04.504Z,49.30
2018-02-11T04:46:31.963Z,48.00
2018-02-11T04:49:00.051Z,47.67
2018-02-11T04:51:27.509Z,48.43
2018-02-11T04:53:54.956Z,48.20
2018-02-11T04:56:22.739Z,45.87
2018-02-11T04:58:50.224Z,47.10
2018-02-11T05:01:17.672Z,46.87
2018-02-11T05:03:45.435Z,46.97
2018-02-11T05:06:13.093Z,50.30
2018-02-11T05:08:40.526Z,46.43
2018-02-11T05:11:08.422Z,44.57
2018-02-11T05:13:35.877Z,44.53
2018-02-11T05:16:03.321Z,45.27
2018-02-11T05:18:31.095Z,44.60
2018-02-11T05:20:58.540Z,44.70
2018-02-11T05:23:25.996Z,43.87
2018-02-11T05:25:53.847Z,44.23
2018-02-11T05:28:21.257Z,43.50
2018-02-11T05:30:48.724Z,44.40
2018-02-11T05:33:16.479Z,42.90
2018-02-11T05:35:43.933Z,47.00
2018-02-11T05:38:11.380Z,46.30
2018-02-11T05:40:39.166Z,44.30
2018-02-11T05:43:06.628Z,44.30
2018-02-11T05:45:34.097Z,42.13
2018-02-11T05:48:02.162Z,42.43
2018-02-11T05:50:29.612Z,46.20
2018-02-11T05:52:57.057Z,43.13
2018-02-11T05:55:24.845Z,45.53
2018-02-11T05:57:52.300Z,45.40
2018-02-11T06:00:19.756Z,44.57
2018-02-11T06:02:47.524Z,43.83
2018-02-11T06:05:14.985Z,44.23
2018-02-11T06:07:42.447Z,44.87
2018-02-11T06:10:10.218Z,46.43
2018-02-11T06:12:37.681Z,45.20
2018-02-11T06:15:05.130Z,46.97
2018-02-11T06:17:32.896Z,47.20
2018-02-11T06:20:00.344Z,47.43
2018-02-11T06:22:27.801Z,46.33
2018-02-11T06:24:55.585Z,46.57
2018-02-11T06:27:23.033Z,44.67
2018-02-11T06:29:50.484Z,45.73
2018-02-11T06:32:18.292Z,46.40
2018-02-11T06:34:45.774Z,44.47
2018-02-11T06:37:13.228Z,47.50
2018-02-11T06:39:40.977Z,48.80
2018-02-11T06:42:08.430Z,45.47
2018-02-11T06:44:35.892Z,47.83
2018-02-11T06:47:03.648Z,44.83
2018-02-11T06:49:31.092Z,46.20
2018-02-11T06:51:58.546Z,48.73
2018-02-11T06:54:26.635Z,48.60
2018-02-11T06:56:54.081Z,47.00
2018-02-11T06:59:24.404Z,46.17
2018-02-11T07:01:52.104Z,46.77
2018-02-11T07:04:19.565Z,47.10
2018-02-11T07:06:48.037Z,46.37
2018-02-11T07:09:16.117Z,46.70
2018-02-11T07:11:43.569Z,44.70
2018-02-11T07:14:11.016Z,48.40
2018-02-11T07:16:39.065Z,46.47
2018-02-11T07:19:06.518Z,43.93
2018-02-11T07:21:33.970Z,47.70
2018-02-11T07:24:01.701Z,45.50
2018-02-11T07:26:29.162Z,52.10
2018-02-11T07:28:56.620Z,48.83
2018-02-11T07:31:24.382Z,48.57
2018-02-11T07:33:51.833Z,47.10
2018-02-11T07:36:19.305Z,50.17
2018-02-11T07:38:47.065Z,45.77
2018-02-11T07:41:14.521Z,45.43
2018-02-11T07:43:41.976Z,49.00
2018-02-11T07:46:09.751Z,52.07
2018-02-11T07:48:37.209Z,49.63
2018-02-11T07:51:04.672Z,50.67
2018-02-11T07:53:32.457Z,47.47
2018-02-11T07:55:59.913Z,51.10
2018-02-11T07:58:27.380Z,47.03
2018-02-11T08:00:55.764Z,48.80
2018-02-11T08:03:23.219Z,47.77
2018-02-11T08:05:50.693Z,46.93
2018-02-11T08:08:18.424Z,47.27
2018-02-11T08:10:45.874Z,46.77
2018-02-11T08:13:13.329Z,47.90
2018-02-11T08:15:41.121Z,45.77
2018-02-11T08:18:08.583Z,47.80
2018-02-11T08:20:36.049Z,49.60
2018-02-11T08:23:03.812Z,45.23
2018-02-11T08:25:31.269Z,45.27
2018-02-11T08:27:58.737Z,45.03
2018-02-11T08:30:26.831Z,41.73
2018-02-11T08:32:54.271Z,41.77
2018-02-11T08:35:21.732Z,44.80
2018-02-11T08:37:49.378Z,45.40
2018-02-11T08:40:16.838Z,43.27
2018-02-11T08:42:44.299Z,43.47
2018-02-11T08:45:12.186Z,40.80
2018-02-11T08:47:39.703Z,43.50
2018-02-11T08:50:07.125Z,39.40
2018-02-11T08:52:35.176Z,40.40
2018-02-11T08:55:02.639Z,40.83
2018-02-11T08:57:30.102Z,38.83
2018-02-11T08:59:57.864Z,40.07
2018-02-11T09:02:26.022Z,38.97
2018-02-11T09:04:53.490Z,37.67
2018-02-11T09:07:21.462Z,39.77
2018-02-11T09:09:48.934Z,41.77
2018-02-11T09:12:16.394Z,40.43
2018-02-11T09:14:44.159Z,34.27
2018-02-11T09:17:11.612Z,36.73
2018-02-11T09:19:39.056Z,33.90
2018-02-11T09:22:06.837Z,34.30
2018-02-11T09:24:34.291Z,32.17
2018-02-11T09:27:01.753Z,31.17
2018-02-11T09:29:29.525Z,35.97
2018-02-11T09:31:56.984Z,34.20
2018-02-11T09:34:24.449Z,29.23
2018-02-11T09:36:52.216Z,26.10
2018-02-11T09:39:19.678Z,27.90
2018-02-11T09:41:47.141Z,22.33
2018-02-11T09:44:14.911Z,24.23
2018-02-11T09:46:42.364Z,26.27
2018-02-11T09:49:09.827Z,25.40
2018-02-11T09:51:37.498Z,25.87
2018-02-11T09:54:04.958Z,26.07
2018-02-11T09:56:32.416Z,23.23
2018-02-11T09:59:00.063Z,25.60
2018-02-11T10:01:27.519Z,26.00
2018-02-11T10:03:56.689Z,24.10
2018-02-11T10:06:24.512Z,23.00
2018-02-11T10:08:51.970Z,24.50
2018-02-11T10:11:19.421Z,24.07
2018-02-11T10:13:47.195Z,20.67
2018-02-11T10:16:14.648Z,22.30
2018-02-11T10:18:42.116Z,21.70
2018-02-11T10:21:09.758Z,21.33
2018-02-11T10:23:37.214Z,22.70
2018-02-11T10:26:04.663Z,21.97
2018-02-11T10:28:32.572Z,17.60
2018-02-11T10:31:00.070Z,18.03
2018-02-11T10:33:27.529Z,14.63
2018-02-11T10:35:55.388Z,16.70
2018-02-11T10:38:22.861Z,16.93
2018-02-11T10:40:50.321Z,18.33
2018-02-11T10:43:18.253Z,18.90
2018-02-11T10:45:45.718Z,17.37
2018-02-11T10:48:13.184Z,19.70
2018-02-11T10:50:40.945Z,18.60
2018-02-11T10:53:08.413Z,19.20
2018-02-11T10:55:35.869Z,18.97
2018-02-11T10:58:03.685Z,18.27
2018-02-11T11:00:31.142Z,18.73
2018-02-11T11:02:58.593Z,17.70
2018-02-11T11:05:27.202Z,17.20
2018-02-11T11:07:54.647Z,16.57
2018-02-11T11:10:22.104Z,15.77
2018-02-11T11:12:50.248Z,16.73
2018-02-11T11:22:01.366Z,16.80
2018-02-11T11:24:28.822Z,13.80
2018-02-11T11:26:56.273Z,15.47
2018-02-11T11:29:24.354Z,15.57
2018-02-11T11:31:51.817Z,15.57
2018-02-11T11:34:19.326Z,16.40
2018-02-11T11:36:47.065Z,18.60
2018-02-11T11:39:14.515Z,16.23
2018-02-11T11:41:41.963Z,15.70
2018-02-11T11:44:09.721Z,14.30
2018-02-11T11:46:37.180Z,13.70
2018-02-11T11:49:04.644Z,15.23
2018-02-11T11:51:32.709Z,15.20
2018-02-11T11:54:00.161Z,11.03
2018-02-11T11:56:27.643Z,14.40
2018-02-11T11:58:55.404Z,11.93
2018-02-11T12:01:22.862Z,8.73
2018-02-11T12:03:50.323Z,10.67
2018-02-11T12:06:18.644Z,9.07
2018-02-11T12:08:46.094Z,9.57
2018-02-11T12:11:13.548Z,11.67
2018-02-11T12:13:41.367Z,7.67
2018-02-11T12:16:08.824Z,9.70
2018-02-11T12:18:36.265Z,9.00
2018-02-11T12:21:04.073Z,8.07
2018-02-11T12:23:31.526Z,5.10
2018-02-11T12:25:58.974Z,7.70
2018-02-11T12:28:26.765Z,12.00
2018-02-11T12:30:54.216Z,10.13
2018-02-11T12:33:21.673Z,11.57
2018-02-11T12:35:49.458Z,12.43
2018-02-11T12:38:16.925Z,10.80
2018-02-11T12:40:44.373Z,10.70
2018-02-11T12:43:12.128Z,9.90
2018-02-11T12:45:39.589Z,10.77
2018-02-11T12:48:07.051Z,13.17
2018-02-11T12:50:34.825Z,12.37
2018-02-11T12:53:03.173Z,13.50
2018-02-11T12:55:30.629Z,13.60
2018-02-11T12:57:58.437Z,12.70
2018-02-11T13:00:25.884Z,12.97
2018-02-11T13:09:37.474Z,15.43
2018-02-11T13:12:04.942Z,13.27
2018-02-11T13:14:32.397Z,15.37
2018-02-11T13:17:00.367Z,13.63
2018-02-11T13:19:27.820Z,14.50
2018-02-11T13:21:55.267Z,15.37
2018-02-11T13:24:23.019Z,16.33
2018-02-11T13:26:50.486Z,14.17
2018-02-11T13:29:17.948Z,14.90
2018-02-11T13:31:45.703Z,16.73
2018-02-11T13:34:13.172Z,13.40
2018-02-11T13:36:40.640Z,16.50
2018-02-11T13:39:08.396Z,14.97
2018-02-11T13:41:35.857Z,14.33
2018-02-11T13:44:03.320Z,14.67
2018-02-11T13:46:31.371Z,14.17
2018-02-11T13:48:58.824Z,14.20
2018-02-11T13:51:26.276Z,16.27
2018-02-11T13:53:54.057Z,16.13
2018-02-11T13:56:21.516Z,15.57
2018-02-11T13:58:48.975Z,15.10
2018-02-11T14:01:16.919Z,16.27
2018-02-11T14:03:44.373Z,15.20
2018-02-11T14:06:11.828Z,16.73
2018-02-11T14:08:39.736Z,15.10
2018-02-11T14:11:07.590Z,15.50
2018-02-11T14:13:35.039Z,15.93
2018-02-11T14:16:02.980Z,17.00
2018-02-11T14:18:30.437Z,15.90
2018-02-11T14:20:57.924Z,14.60
2018-02-11T14:23:25.732Z,15.00
2018-02-11T14:25:53.179Z,15.50
2018-02-11T14:28:20.632Z,14.33
2018-02-11T14:30:48.422Z,15.50
2018-02-11T14:33:15.877Z,13.63
2018-02-11T14:35:43.339Z,14.20
2018-02-11T14:38:11.125Z,13.30
2018-02-11T14:40:38.574Z,14.97
2018-02-11T14:43:06.027Z,13.47
2018-02-11T14:45:33.805Z,18.37
2018-02-11T14:48:01.256Z,16.47
2018-02-11T14:50:28.715Z,15.80
2018-02-11T14:52:56.491Z,14.43
2018-02-11T14:55:23.964Z,17.33
2018-02-11T14:57:51.410Z,13.00
2018-02-11T15:00:19.183Z,14.73
2018-02-11T15:02:46.630Z,11.80
2018-02-11T15:05:14.084Z,12.30
2018-02-11T15:07:41.947Z,13.30
2018-02-11T15:10:09.398Z,13.60
2018-02-11T15:12:38.732Z,12.90
2018-02-11T15:15:06.388Z,11.67
2018-02-11T15:17:33.880Z,11.73
2018-02-11T15:20:01.617Z,11.27
2018-02-11T15:22:29.337Z,10.30
2018-02-11T15:24:56.789Z,11.93
2018-02-11T15:27:24.255Z,12.30
2018-02-11T15:29:52.069Z,11.00
2018-02-11T15:32:19.514Z,8.83
2018-02-11T15:34:47.316Z,8.90
2018-02-11T15:37:15.061Z,9.27
2018-02-11T15:39:42.557Z,8.47
2018-02-11T15:42:10.004Z,9.47
2018-02-11T15:44:37.764Z,9.97
2018-02-11T15:47:05.279Z,9.40
2018-02-11T15:49:32.723Z,9.10
2018-02-11T15:52:00.484Z,9.00
2018-02-11T15:54:27.946Z,8.27
2018-02-11T15:56:55.408Z,8.57
2018-02-11T15:59:23.440Z,8.80
2018-02-11T16:01:50.894Z,8.20
2018-02-11T16:04:18.353Z,9.13
2018-02-11T16:06:46.238Z,10.20
2018-02-11T16:09:13.728Z,9.37
2018-02-11T16:11:41.354Z,11.53
2018-02-11T16:14:10.373Z,8.83
2018-02-11T16:16:37.834Z,10.13
2018-02-11T16:19:05.308Z,13.13
2018-02-11T16:21:33.328Z,10.60
2018-02-11T16:24:00.836Z,10.60
2018-02-11T16:26:28.519Z,9.53
2018-02-11T16:28:56.683Z,10.37
2018-02-11T16:31:24.128Z,11.40
2018-02-11T16:33:51.606Z,11.13
2018-02-11T16:36:19.641Z,9.77
2018-02-11T16:38:47.691Z,10.57
2018-02-11T16:41:15.701Z,10.63
2018-02-11T16:43:43.543Z,11.20
2018-02-11T16:46:10.989Z,11.00
2018-02-11T16:48:38.491Z,12.00
2018-02-11T16:51:06.232Z,11.50
2018-02-11T16:53:33.678Z,17.17
2018-02-11T16:56:01.133Z,10.77
2018-02-11T16:58:29.212Z,9.37
2018-02-11T17:00:56.676Z,10.13
2018-02-11T17:03:24.198Z,10.90
2018-02-11T17:05:51.941Z,9.40
2018-02-11T17:08:19.419Z,13.97
2018-02-11T17:10:46.868Z,12.27
2018-02-11T17:13:14.542Z,10.80
2018-02-11T17:15:42.750Z,11.30
2018-02-11T17:18:10.198Z,13.40
2018-02-11T17:20:37.909Z,10.77
2018-02-11T17:23:05.412Z,10.30
2018-02-11T17:25:33.128Z,9.30
2018-02-11T17:28:00.949Z,11.10
2018-02-11T17:30:28.392Z,11.07
2018-02-11T17:32:55.865Z,10.33
2018-02-11T17:35:23.907Z,10.20
2018-02-11T17:37:51.355Z,10.17
2018-02-11T17:40:18.801Z,10.57
2018-02-11T17:42:46.577Z,10.63
2018-02-11T17:45:14.040Z,10.90
2018-02-11T17:47:41.485Z,9.37
2018-02-11T17:50:09.224Z,9.60
2018-02-11T17:52:36.975Z,11.27
2018-02-11T17:55:04.435Z,10.77
2018-02-11T17:57:32.281Z,13.73
2018-02-11T17:59:59.758Z,13.27
2018-02-11T18:02:27.204Z,11.17
2018-02-11T18:04:54.959Z,13.43
2018-02-11T18:07:22.418Z,12.20
2018-02-11T18:09:49.917Z,11.23
2018-02-11T18:12:17.953Z,10.43
2018-02-11T18:14:45.408Z,11.60
2018-02-11T18:17:13.348Z,10.63
2018-02-11T18:19:41.245Z,10.87
2018-02-11T18:22:08.692Z,10.47
2018-02-11T18:24:36.138Z,11.93
2018-02-11T18:27:03.939Z,11.17
2018-02-11T18:29:31.392Z,11.70
2018-02-11T18:31:58.841Z,11.53
2018-02-11T18:34:26.618Z,12.90
2018-02-11T18:36:54.066Z,10.30
2018-02-11T18:39:21.519Z,12.20
2018-02-11T18:41:49.325Z,10.43
2018-02-11T18:44:16.770Z,12.40
2018-02-11T18:46:44.233Z,12.80
2018-02-11T18:49:12.016Z,10.70
2018-02-11T18:51:39.468Z,11.43
2018-02-11T18:54:06.909Z,11.27
2018-02-11T18:56:34.676Z,11.43
2018-02-11T18:59:02.144Z,12.57
2018-02-11T19:01:29.604Z,12.53
2018-02-11T19:03:57.682Z,12.97
2018-02-11T19:06:25.158Z,12.47
2018-02-11T19:08:52.760Z,11.67
2018-02-11T19:11:20.428Z,14.90
2018-02-11T19:13:47.882Z,12.50
2018-02-11T19:16:15.338Z,11.90
2018-02-11T19:18:43.964Z,12.10
2018-02-11T19:21:11.408Z,11.30
2018-02-11T19:23:39.404Z,10.43
2018-02-11T19:26:07.841Z,12.50
2018-02-11T19:28:35.294Z,12.83
2018-02-11T19:31:02.738Z,11.93
2018-02-11T19:33:30.567Z,11.40
2018-02-11T19:35:58.644Z,11.60
2018-02-11T19:38:26.092Z,12.60
2018-02-11T19:40:53.869Z,10.50
2018-02-11T19:43:21.317Z,12.13
2018-02-11T19:45:49.161Z,12.27
2018-02-11T19:48:17.175Z,11.77
2018-02-11T19:50:44.646Z,12.70
2018-02-11T19:53:12.101Z,12.13
2018-02-11T19:55:40.172Z,14.63
2018-02-11T19:58:07.638Z,13.10
2018-02-11T20:00:35.102Z,13.30
2018-02-11T20:03:02.856Z,12.37
2018-02-11T20:05:30.305Z,13.37
2018-02-11T20:07:57.769Z,13.70
2018-02-11T20:10:25.851Z,14.07
2018-02-11T20:12:53.394Z,12.17
2018-02-11T20:15:20.852Z,14.63
2018-02-11T20:17:48.573Z,14.70
2018-02-11T20:20:18.849Z,15.47
2018-02-11T20:22:46.310Z,13.97
2018-02-11T20:25:13.985Z,14.40
2018-02-11T20:27:41.432Z,13.17
2018-02-11T20:30:08.903Z,14.47
2018-02-11T20:32:36.988Z,13.33
2018-02-11T20:35:04.452Z,15.30
2018-02-11T20:37:31.901Z,13.73
2018-02-11T20:39:59.620Z,14.43
2018-02-11T20:42:27.085Z,16.10
2018-02-11T20:44:56.092Z,12.20
2018-02-11T20:47:23.930Z,16.47
2018-02-11T20:49:51.389Z,15.30
2018-02-11T20:52:18.865Z,15.30
2018-02-11T20:54:47.672Z,15.87
2018-02-11T20:57:15.278Z,16.13
2018-02-11T20:59:43.409Z,16.90
2018-02-11T21:02:11.039Z,16.13
2018-02-11T21:04:38.485Z,15.40
2018-02-11T21:07:07.255Z,16.87
2018-02-11T21:09:35.026Z,17.37
2018-02-11T21:12:02.477Z,17.50
2018-02-11T21:14:29.934Z,17.17
2018-02-11T21:16:58.622Z,17.23
2018-02-11T21:19:26.572Z,19.20
2018-02-11T21:21:56.079Z,19.37
2018-02-11T21:24:24.091Z,19.33
2018-02-11T21:26:51.549Z,20.17
2018-02-11T21:29:19.005Z,20.50
2018-02-11T21:31:46.793Z,19.20
2018-02-11T21:34:14.253Z,22.23
2018-02-11T21:36:41.712Z,21.67
2018-02-11T21:39:09.469Z,22.40
2018-02-11T21:41:36.957Z,20.70
2018-02-11T21:44:04.433Z,21.10
2018-02-11T21:46:32.199Z,21.37
2018-02-11T21:48:59.665Z,23.07
2018-02-11T21:51:27.130Z,23.83
2018-02-11T21:53:54.857Z,22.47
2018-02-11T21:56:22.344Z,23.27
2018-02-11T21:58:49.824Z,24.20
2018-02-11T22:01:17.524Z,23.80
2018-02-11T22:03:45.016Z,27.13
2018-02-11T22:06:12.467Z,26.57
2018-02-11T22:08:40.570Z,26.63
2018-02-11T22:11:08.048Z,27.60
2018-02-11T22:13:35.491Z,27.70
2018-02-11T22:16:03.521Z,26.33
2018-02-11T22:18:31.222Z,25.20
2018-02-11T22:20:58.697Z,28.10
2018-02-11T22:23:27.434Z,23.60
2018-02-11T22:25:54.884Z,25.70
2018-02-11T22:28:22.364Z,29.60
2018-02-11T22:30:50.127Z,30.57
2018-02-11T22:33:17.590Z,29.77
2018-02-11T22:35:45.045Z,29.27
2018-02-11T22:38:12.797Z,30.07
2018-02-11T22:40:40.250Z,28.77
2018-02-11T22:43:07.713Z,32.83
2018-02-11T22:45:35.805Z,28.90
2018-02-11T22:48:03.268Z,29.23
2018-02-11T22:50:30.722Z,28.80
2018-02-11T22:52:58.519Z,31.47
2018-02-11T22:55:25.987Z,32.17
2018-02-11T22:57:53.441Z,31.07
2018-02-11T23:00:21.482Z,32.27
2018-02-11T23:02:48.932Z,31.10
2018-02-11T23:05:16.391Z,34.07
2018-02-11T23:07:44.181Z,33.87
2018-02-11T23:10:11.649Z,33.00
2018-02-11T23:12:39.108Z,32.67
2018-02-11T23:15:06.861Z,34.37
2018-02-11T23:17:34.315Z,33.97
2018-02-11T23:20:01.776Z,29.37
2018-02-11T23:22:29.616Z,29.40
2018-02-11T23:24:58.297Z,30.57
2018-02-11T23:27:25.753Z,30.50
2018-02-11T23:29:53.763Z,31.23
2018-02-11T23:32:21.220Z,30.40
2018-02-11T23:34:48.713Z,31.37
2018-02-11T23:37:16.440Z,31.83
2018-02-11T23:39:43.889Z,34.17
2018-02-11T23:42:11.349Z,32.60
2018-02-11T23:44:39.062Z,30.73
2018-02-11T23:47:06.520Z,30.57
2018-02-11T23:49:33.980Z,33.00
2018-02-11T23:52:01.782Z,35.63
2018-02-11T23:54:29.248Z,33.40
2018-02-11T23:56:56.696Z,36.20
2018-02-11T23:59:24.517Z,35.03
